Latest Weather Observations for Newcastle Nobbys

IDN60901

Issued at 12:01 pm EST Sunday 25 September 2016 (issued every 10 minutes, with the page automatically refreshed every 10 minutes)

About weather observations | Map of Sydney area stations | Latest observations for Sydney area | Other Formats
Station Details ID: 061055 Name: NEWCASTLE NOBBYS SIGNAL STATION AWS Lat: -32.92 Lon: 151.80 Height: 33.0 m
Data from the previous 72 hours. | See also: Recent months at Newcastle Nobbys
Date/Time
EST
Temp
°C
App
Temp
°C
Dew
Point
°C
Rel
Hum
%
Delta-T
°C
Wind Press
QNH
hPa
Press
MSL
hPa
Rain since
9am
mm
Dir  Spd
km/h
Gust
km/h
Spd
kts
Gust
kts
25/12:00pm 20.9 17.6 11.0 53 5.4 WNW 19 26 10 14 - - 0.2
25/11:30am 21.1 17.3 11.2 53 5.5 WNW 22 30 12 16 - - 0.2
25/11:00am 19.6 16.5 11.6 60 4.4 WNW 19 26 10 14 - - 0.0
25/10:30am 18.5 14.6 12.0 66 3.6 WNW 24 37 13 20 - - 0.0
25/10:00am 17.1 13.3 12.4 74 2.6 WNW 24 35 13 19 - - 0.0
25/09:30am 15.9 12.2 12.6 81 1.8 WNW 24 33 13 18 - - 0.0
25/09:00am 15.2 11.9 12.9 86 1.3 WNW 22 28 12 15 - - 4.0
25/08:30am 14.1 10.3 12.3 89 1.0 NW 24 33 13 18 - - 4.0
25/08:00am 14.0 11.4 12.0 88 1.1 NW 17 22 9 12 - - 3.8
25/07:30am 14.0 13.0 12.2 89 1.0 NW 9 13 5 7 - - 3.6
25/07:00am 13.9 13.3 12.3 90 0.9 WNW 7 9 4 5 - - 3.0
25/06:30am 14.2 12.2 11.5 84 1.4 WSW 13 17 7 9 - - 2.0
25/06:00am 14.9 12.8 12.4 85 1.4 W 15 20 8 11 - - 1.0
25/05:30am 15.4 15.2 12.9 85 1.4 WSW 6 9 3 5 - - 0.4
25/05:00am 15.8 15.6 13.1 84 1.5 W 6 7 3 4 - - 0.4
25/04:30am 16.3 14.7 12.7 79 2.0 NW 13 17 7 9 - - 0.0
25/04:00am 16.2 13.7 12.4 78 2.1 WNW 17 20 9 11 - - 0.0
25/03:30am 15.8 13.8 12.7 82 1.7 NW 15 20 8 11 - - 0.0
25/03:00am 15.9 14.3 12.8 82 1.7 NW 13 15 7 8 - - 0.0
25/02:30am 16.2 14.3 12.9 81 1.8 NW 15 19 8 10 - - 0.0
25/02:00am 16.1 14.6 13.0 82 1.7 NNW 13 17 7 9 - - 0.0
25/01:30am 16.3 15.1 12.8 80 1.9 NW 11 17 6 9 - - 0.0
25/01:00am 16.4 14.0 12.8 79 2.0 NNW 17 20 9 11 - - 0.0
25/12:30am 16.6 14.9 12.6 77 2.2 NW 13 15 7 8 - - 0.0
25/12:00am 16.8 15.2 12.7 77 2.3 NW 13 17 7 9 - - 0.0
 
Date/Time
EST
Temp
°C
App
Temp
°C
Dew
Point
°C
Rel
Hum
%
Delta-T
°C
Wind Press
QNH
hPa
Press
MSL
hPa
Rain since
9am
mm
Dir  Spd
km/h
Gust
km/h
Spd
kts
Gust
kts
24/11:30pm 16.6 16.4 13.1 80 2.0 NW 6 7 3 4 - - 0.0
24/11:00pm 17.0 16.3 13.3 79 2.1 NNW 9 13 5 7 - - 0.0
24/10:30pm 17.2 16.4 12.9 76 2.4 NNW 9 11 5 6 - - 0.0
24/10:00pm 16.9 16.3 13.4 80 2.0 NNE 9 13 5 7 - - 0.0
24/09:30pm 16.7 15.2 14.2 85 1.4 N 15 19 8 10 - - 0.0
24/09:00pm 17.1 15.8 14.9 87 1.3 N 15 17 8 9 - - 0.0
24/08:30pm 17.3 16.9 15.1 87 1.3 N 11 15 6 8 - - 0.0
24/08:00pm 17.6 17.1 15.0 85 1.5 NNE 11 17 6 9 - - 0.0
24/07:30pm 17.8 17.0 15.2 85 1.5 NNE 13 15 7 8 - - 0.0
24/07:00pm 18.4 17.4 15.5 83 1.7 NE 15 20 8 11 - - 0.0
24/06:30pm 18.4 18.0 15.3 82 1.8 ENE 11 15 6 8 - - 0.0
24/06:00pm 18.8 18.0 15.1 79 2.2 E 13 17 7 9 - - 0.0
24/05:30pm 18.9 17.5 14.6 76 2.5 E 15 17 8 9 - - 0.0
24/05:00pm 19.0 17.5 14.3 74 2.7 ESE 15 17 8 9 - - 0.0
24/04:30pm 19.4 17.5 14.2 72 3.0 ESE 17 20 9 11 - - 0.0
24/04:00pm 19.6 17.7 14.2 71 3.1 SE 17 20 9 11 - - 0.0
24/03:30pm 19.6 17.0 13.8 69 3.3 SE 20 22 11 12 - - 0.0
24/03:00pm 19.9 17.4 14.0 69 3.4 SE 20 22 11 12 - - 0.0
24/02:30pm 19.6 17.2 13.8 69 3.3 SE 19 20 10 11 - - 0.0
24/02:00pm 19.5 17.1 13.9 70 3.2 SE 19 20 10 11 - - 0.0
24/01:30pm 19.6 17.3 14.0 70 3.2 SSE 19 20 10 11 - - 0.0
24/01:00pm 19.5 17.2 14.1 71 3.1 SSE 19 20 10 11 - - 0.0
24/12:30pm 19.3 17.1 13.3 68 3.4 SE 17 17 9 9 - - 0.0
24/12:00pm 19.3 17.3 13.9 71 3.1 SSE 17 19 9 10 - - 0.0
24/11:30am 18.9 16.5 13.7 72 3.0 S 19 20 10 11 - - 0.0
24/11:00am 18.6 16.4 13.2 71 3.1 S 17 20 9 11 - - 0.0
24/10:30am 18.6 16.2 12.8 69 3.3 S 17 17 9 9 - - 0.0
24/10:00am 19.0 17.2 13.2 69 3.3 S 15 17 8 9 - - 0.0
24/09:30am 18.5 16.9 12.7 69 3.2 S 13 15 7 8 - - 0.0
24/09:00am 18.0 16.4 12.7 71 3.0 SSW 13 20 7 11 - - 0.0
24/08:30am 18.0 16.7 12.5 70 3.1 SW 11 20 6 11 - - 0.0
24/08:00am 17.4 15.9 11.9 70 3.0 WSW 11 19 6 10 - - 0.0
24/07:30am 16.4 15.1 11.3 72 2.8 WNW 9 15 5 8 - - 0.0
24/07:00am 15.2 13.2 11.6 79 1.9 W 13 15 7 8 - - 0.0
24/06:30am 13.7 11.9 11.0 84 1.4 W 11 13 6 7 - - 0.0
24/06:00am 13.5 11.7 11.0 85 1.3 WNW 11 15 6 8 - - 0.0
24/05:30am 14.0 11.2 11.2 83 1.5 W 17 20 9 11 - - 0.0
24/05:00am 14.1 10.9 11.1 82 1.6 W 19 20 10 11 - - 0.0
24/04:30am 14.0 10.8 11.2 83 1.5 WNW 19 22 10 12 - - 0.0
24/04:00am 14.2 11.7 11.2 82 1.6 WNW 15 19 8 10 - - 0.0
24/03:30am 14.2 12.1 11.0 81 1.7 WNW 13 15 7 8 - - 0.0
24/03:00am 14.3 12.2 11.1 81 1.7 WNW 13 17 7 9 - - 0.0
24/02:30am 14.4 12.7 11.2 81 1.7 W 11 13 6 7 - - 0.0
24/02:00am 14.9 13.2 11.3 79 1.9 WSW 11 20 6 11 - - 0.0
24/01:30am 14.4 12.3 11.2 81 1.7 WNW 13 17 7 9 - - 0.0
24/01:00am 14.3 12.7 11.5 83 1.5 W 11 15 6 8 - - 0.0
24/12:30am 14.4 12.8 11.4 82 1.6 WNW 11 15 6 8 - - 0.0
24/12:00am 14.5 12.6 11.7 83 1.5 WNW 13 15 7 8 - - 0.0
 
Date/Time
EST
Temp
°C
App
Temp
°C
Dew
Point
°C
Rel
Hum
%
Delta-T
°C
Wind Press
QNH
hPa
Press
MSL
hPa
Rain since
9am
mm
Dir  Spd
km/h
Gust
km/h
Spd
kts
Gust
kts
23/11:30pm 14.8 13.3 11.8 82 1.6 W 11 15 6 8 - - 0.0
23/11:00pm 16.1 14.7 12.3 78 2.1 WSW 11 20 6 11 - - 0.0
23/10:30pm 16.3 14.9 12.3 77 2.2 SW 11 19 6 10 - - 0.0
23/10:00pm 16.5 15.3 12.7 78 2.1 WSW 11 20 6 11 - - 0.0
23/09:30pm 17.0 14.7 13.1 78 2.2 SW 17 24 9 13 - - 0.0
23/09:00pm 17.1 14.4 13.0 77 2.3 SSW 19 24 10 13 - - 0.0
23/08:30pm 17.5 15.0 13.6 78 2.2 SSW 19 33 10 18 - - 0.0
23/08:00pm 17.7 13.3 13.0 74 2.6 SSW 28 37 15 20 - - 0.0
23/07:30pm 17.6 13.3 13.1 75 2.5 SSW 28 39 15 21 - - 0.0
23/07:00pm 17.9 12.5 12.8 72 2.9 SSW 33 48 18 26 - - 0.0
23/06:48pm 17.9 12.6 13.0 73 2.8 SSW 33 52 18 28 - - 0.0
23/06:30pm 17.8 12.3 12.5 71 2.9 SSW 33 48 18 26 - - 0.0
23/06:00pm 17.8 12.6 12.9 73 2.7 SSW 32 46 17 25 - - 0.0
23/05:30pm 17.7 12.3 12.2 70 3.0 SSW 32 44 17 24 - - 0.0
23/05:00pm 17.8 13.1 13.3 75 2.5 SSW 30 39 16 21 - - 0.0
23/04:30pm 17.9 13.3 12.4 70 3.1 SSW 28 41 15 22 - - 0.0
23/04:00pm 17.9 12.5 12.8 72 2.9 SSW 33 46 18 25 - - 0.0
23/03:48pm 18.1 12.9 12.8 71 3.0 SSW 32 52 17 28 - - 0.0
23/03:30pm 18.2 13.0 12.9 71 3.0 SSW 32 50 17 27 - - 0.0
23/03:00pm 18.4 12.1 12.4 68 3.3 SSW 37 56 20 30 - - 0.0
23/02:58pm 18.4 12.2 12.6 69 3.2 SSW 37 56 20 30 - - 0.0
23/02:30pm 18.3 12.4 12.5 69 3.2 SSW 35 48 19 26 - - 0.0
23/02:00pm 18.2 12.7 12.6 70 3.1 SSW 33 46 18 25 - - 0.0
23/01:30pm 18.1 12.3 12.8 71 3.0 SSW 35 46 19 25 - - 0.0
23/01:00pm 18.2 12.7 12.4 69 3.2 SSW 33 46 18 25 - - 0.0
23/12:30pm 18.3 12.7 12.1 67 3.4 SSW 33 50 18 27 - - 0.0
23/12:00pm 18.1 12.0 11.9 67 3.4 SSW 35 50 19 27 - - 0.0
23/11:38am 18.5 12.8 11.1 62 4.0 SSW 32 50 17 27 - - 0.0
23/11:30am 18.4 12.6 11.5 64 3.8 SSW 33 46 18 25 - - 0.0
23/11:00am 18.6 13.1 11.7 64 3.8 SSW 32 44 17 24 - - 0.0
23/10:30am 18.8 13.6 11.6 63 4.0 SSW 30 44 16 24 - - 0.0
23/10:00am 18.6 12.8 10.7 60 4.3 SSW 32 48 17 26 - - 0.0
23/09:30am 18.5 13.3 10.1 58 4.5 SSW 28 41 15 22 - - 0.0
23/09:00am 18.2 13.0 9.0 55 4.8 SW 26 43 14 23 - - 0.0
23/08:30am 17.6 13.2 9.0 57 4.5 SW 22 37 12 20 - - 0.0
23/08:00am 17.0 12.9 8.7 58 4.3 WSW 20 30 11 16 - - 0.0
23/07:30am 16.9 12.8 8.6 58 4.3 WSW 20 33 11 18 - - 0.0
23/07:00am 16.5 11.5 8.2 58 4.2 WSW 24 39 13 21 - - 0.0
23/06:30am 16.4 12.2 8.1 58 4.2 WSW 20 33 11 18 - - 0.0
23/06:00am 16.4 12.7 8.1 58 4.2 WSW 17 32 9 17 - - 0.0
23/05:30am 16.4 12.4 8.1 58 4.2 WSW 19 30 10 16 - - 0.0
23/05:00am 16.4 12.8 8.4 59 4.1 WSW 17 24 9 13 - - 0.0
23/04:30am 16.5 12.6 8.5 59 4.1 WSW 19 28 10 15 - - 0.0
23/04:00am 16.6 12.0 8.3 58 4.2 W 22 35 12 19 - - 0.0
23/03:30am 16.6 11.7 8.6 59 4.1 W 24 35 13 19 - - 0.0
23/03:00am 16.7 11.3 8.1 57 4.4 WSW 26 43 14 23 - - 0.0
23/02:30am 16.7 11.5 8.7 59 4.1 W 26 37 14 20 - - 0.0
23/02:00am 16.4 11.6 8.9 61 3.9 W 24 41 13 22 - - 0.0
23/01:30am 15.8 11.9 8.8 63 3.6 WNW 19 24 10 13 - - 0.0
23/01:00am 15.8 11.7 8.8 63 3.6 W 20 28 11 15 - - 0.0
23/12:30am 16.0 11.5 8.5 61 3.8 WNW 22 30 12 16 - - 0.0
23/12:00am 16.1 11.2 8.3 60 4.0 WNW 24 33 13 18 - - 0.0
 
Date/Time
EST
Temp
°C
App
Temp
°C
Dew
Point
°C
Rel
Hum
%
Delta-T
°C
Wind Press
QNH
hPa
Press
MSL
hPa
Rain since
9am
mm
Dir  Spd
km/h
Gust
km/h
Spd
kts
Gust
kts
22/11:30pm 16.1 10.4 8.3 60 4.0 WNW 28 35 15 19 - - 0.0
22/11:00pm 16.1 10.0 8.3 60 4.0 WNW 30 39 16 21 - - 0.0
22/10:30pm 16.3 10.1 8.0 58 4.2 WNW 30 39 16 21 - - 0.0
22/10:00pm 16.4 10.6 8.1 58 4.2 WNW 28 35 15 19 - - 0.0
22/09:30pm 16.8 10.6 8.0 56 4.5 WNW 30 39 16 21 - - 0.0
22/09:00pm 17.0 10.4 7.9 55 4.6 WNW 32 43 17 23 - - 0.0
22/08:30pm 17.1 10.6 8.0 55 4.6 WNW 32 41 17 22 - - 0.0
22/08:00pm 17.3 10.2 7.9 54 4.8 WNW 35 52 19 28 - - 0.0
22/07:30pm 17.5 9.9 7.5 52 5.0 WNW 37 52 20 28 - - 0.0
22/07:00pm 17.8 11.9 7.5 51 5.2 WNW 28 39 15 21 - - 0.0
22/06:30pm 18.1 11.6 8.1 52 5.1 WNW 32 39 17 21 - - 0.0
22/06:00pm 18.3 12.1 7.7 50 5.4 WNW 30 37 16 20 - - 0.0
22/05:30pm 18.4 12.3 8.1 51 5.3 WNW 30 41 16 22 - - 0.0
22/05:00pm 18.8 12.0 7.6 48 5.7 WNW 33 44 18 24 - - 0.0
22/04:30pm 19.4 13.3 8.4 49 5.7 W 30 41 16 22 - - 0.0
22/04:00pm 19.1 13.0 8.4 50 5.5 W 30 43 16 23 - - 0.0
22/03:30pm 19.4 12.6 7.8 47 6.0 W 33 44 18 24 - - 0.0
22/03:00pm 19.6 12.5 8.0 47 6.0 WNW 35 46 19 25 - - 0.0
22/02:30pm 19.0 11.8 9.2 53 5.2 WNW 37 52 20 28 - - 0.0
22/02:00pm 18.9 11.1 9.7 55 4.9 NW 41 57 22 31 - - 0.0
22/01:30pm 20.0 12.1 10.7 55 5.1 NW 43 56 23 30 - - 0.0
22/01:01pm 19.5 12.2 10.2 55 5.0 NW 39 61 21 33 - - 0.0
22/01:00pm 19.5 12.1 10.0 54 5.1 NW 39 54 21 29 - - 0.0
22/12:30pm 19.7 12.5 10.4 55 5.0 NW 39 52 21 28 - - 0.0

Latest Capital City Observations: Canberra | Sydney | Melbourne | Brisbane | Adelaide | Perth | Hobart | Darwin

Other Formats:

Comma delimited format used in spreadsheet applications
http://www.bom.gov.au/fwo/IDN60901/IDN60901.94774.axf

JavaScript Object Notation format (JSON) in row-major order
http://www.bom.gov.au/fwo/IDN60901/IDN60901.94774.json